sensor_id;sensor_type;location;lat;lon;timestamp;P1;durP1;ratioP1;P2;durP2;ratioP2
24635;SDS011;12772;49.794;10.024;2023-07-24T00:03:08;4.50;;;4.10;;
24635;SDS011;12772;49.794;10.024;2023-07-24T00:07:10;6.45;;;4.55;;
24635;SDS011;12772;49.794;10.024;2023-07-24T00:11:12;5.20;;;4.70;;
24635;SDS011;12772;49.794;10.024;2023-07-24T00:15:14;5.78;;;4.60;;
24635;SDS011;12772;49.794;10.024;2023-07-24T00:19:16;5.05;;;4.55;;
24635;SDS011;12772;49.794;10.024;2023-07-24T00:23:18;4.38;;;4.00;;
24635;SDS011;12772;49.794;10.024;2023-07-24T00:27:20;5.25;;;4.43;;
24635;SDS011;12772;49.794;10.024;2023-07-24T00:31:22;5.00;;;4.30;;
24635;SDS011;12772;49.794;10.024;2023-07-24T00:35:25;4.57;;;4.18;;
24635;SDS011;12772;49.794;10.024;2023-07-24T00:39:27;4.88;;;4.45;;
24635;SDS011;12772;49.794;10.024;2023-07-24T00:43:30;5.47;;;4.20;;
24635;SDS011;12772;49.794;10.024;2023-07-24T00:47:32;6.05;;;4.95;;
24635;SDS011;12772;49.794;10.024;2023-07-24T00:51:34;5.15;;;4.70;;
24635;SDS011;12772;49.794;10.024;2023-07-24T00:55:36;4.97;;;4.47;;
24635;SDS011;12772;49.794;10.024;2023-07-24T00:59:39;6.43;;;4.47;;
24635;SDS011;12772;49.794;10.024;2023-07-24T01:03:42;5.25;;;4.75;;
24635;SDS011;12772;49.794;10.024;2023-07-24T01:07:44;6.32;;;4.72;;
24635;SDS011;12772;49.794;10.024;2023-07-24T01:11:47;5.78;;;5.10;;
24635;SDS011;12772;49.794;10.024;2023-07-24T01:15:58;5.90;;;4.97;;
24635;SDS011;12772;49.794;10.024;2023-07-24T01:20:04;6.00;;;5.45;;
24635;SDS011;12772;49.794;10.024;2023-07-24T01:24:29;6.38;;;5.05;;
24635;SDS011;12772;49.794;10.024;2023-07-24T01:28:35;6.07;;;5.57;;
24635;SDS011;12772;49.794;10.024;2023-07-24T01:32:38;6.03;;;5.10;;
24635;SDS011;12772;49.794;10.024;2023-07-24T01:36:40;5.70;;;4.97;;
24635;SDS011;12772;49.794;10.024;2023-07-24T01:40:42;5.13;;;4.70;;
24635;SDS011;12772;49.794;10.024;2023-07-24T01:44:50;6.25;;;5.63;;
24635;SDS011;12772;49.794;10.024;2023-07-24T01:48:53;6.00;;;5.38;;
24635;SDS011;12772;49.794;10.024;2023-07-24T01:52:55;5.93;;;5.22;;
24635;SDS011;12772;49.794;10.024;2023-07-24T01:56:57;7.45;;;5.70;;
24635;SDS011;12772;49.794;10.024;2023-07-24T02:00:59;5.70;;;5.20;;
24635;SDS011;12772;49.794;10.024;2023-07-24T02:05:01;5.88;;;5.28;;
24635;SDS011;12772;49.794;10.024;2023-07-24T02:09:03;6.07;;;5.45;;
24635;SDS011;12772;49.794;10.024;2023-07-24T02:13:05;6.68;;;5.97;;
24635;SDS011;12772;49.794;10.024;2023-07-24T02:17:07;6.15;;;5.57;;
24635;SDS011;12772;49.794;10.024;2023-07-24T02:21:09;5.80;;;5.20;;
24635;SDS011;12772;49.794;10.024;2023-07-24T02:25:11;6.10;;;5.60;;
24635;SDS011;12772;49.794;10.024;2023-07-24T02:29:13;5.60;;;5.10;;
24635;SDS011;12772;49.794;10.024;2023-07-24T02:33:15;5.97;;;5.38;;
24635;SDS011;12772;49.794;10.024;2023-07-24T02:37:17;6.13;;;5.53;;
24635;SDS011;12772;49.794;10.024;2023-07-24T02:41:20;5.30;;;4.80;;
24635;SDS011;12772;49.794;10.024;2023-07-24T02:45:22;5.80;;;5.30;;
24635;SDS011;12772;49.794;10.024;2023-07-24T02:49:24;6.40;;;5.80;;
24635;SDS011;12772;49.794;10.024;2023-07-24T02:53:26;6.28;;;5.68;;
24635;SDS011;12772;49.794;10.024;2023-07-24T02:57:28;6.78;;;6.15;;
24635;SDS011;12772;49.794;10.024;2023-07-24T03:01:30;7.63;;;5.80;;
24635;SDS011;12772;49.794;10.024;2023-07-24T03:05:34;6.15;;;5.57;;
24635;SDS011;12772;49.794;10.024;2023-07-24T03:09:36;6.28;;;5.68;;
24635;SDS011;12772;49.794;10.024;2023-07-24T03:13:38;6.65;;;5.90;;
24635;SDS011;12772;49.794;10.024;2023-07-24T03:17:41;6.22;;;5.47;;
24635;SDS011;12772;49.794;10.024;2023-07-24T03:21:43;6.78;;;6.07;;
24635;SDS011;12772;49.794;10.024;2023-07-24T03:25:45;6.22;;;5.65;;
24635;SDS011;12772;49.794;10.024;2023-07-24T03:29:47;6.07;;;5.43;;
24635;SDS011;12772;49.794;10.024;2023-07-24T03:33:49;6.38;;;5.78;;
24635;SDS011;12772;49.794;10.024;2023-07-24T03:37:51;6.03;;;5.45;;
24635;SDS011;12772;49.794;10.024;2023-07-24T03:41:53;5.82;;;5.32;;
24635;SDS011;12772;49.794;10.024;2023-07-24T03:45:55;6.75;;;5.95;;
24635;SDS011;12772;49.794;10.024;2023-07-24T03:49:57;7.28;;;6.53;;
24635;SDS011;12772;49.794;10.024;2023-07-24T03:53:59;6.55;;;5.95;;
24635;SDS011;12772;49.794;10.024;2023-07-24T03:58:01;7.78;;;6.47;;
24635;SDS011;12772;49.794;10.024;2023-07-24T04:02:03;6.45;;;5.85;;
24635;SDS011;12772;49.794;10.024;2023-07-24T04:06:06;6.90;;;5.97;;
24635;SDS011;12772;49.794;10.024;2023-07-24T04:10:08;6.28;;;5.68;;
24635;SDS011;12772;49.794;10.024;2023-07-24T04:14:10;6.72;;;5.97;;
24635;SDS011;12772;49.794;10.024;2023-07-24T04:18:12;6.85;;;6.15;;
24635;SDS011;12772;49.794;10.024;2023-07-24T04:22:14;6.78;;;6.10;;
24635;SDS011;12772;49.794;10.024;2023-07-24T04:26:16;6.68;;;5.70;;
24635;SDS011;12772;49.794;10.024;2023-07-24T04:30:21;6.45;;;5.85;;
24635;SDS011;12772;49.794;10.024;2023-07-24T04:34:23;7.07;;;6.05;;
24635;SDS011;12772;49.794;10.024;2023-07-24T04:38:25;6.82;;;6.10;;
24635;SDS011;12772;49.794;10.024;2023-07-24T04:42:27;6.68;;;6.03;;
24635;SDS011;12772;49.794;10.024;2023-07-24T04:46:29;7.57;;;6.30;;
24635;SDS011;12772;49.794;10.024;2023-07-24T04:50:31;7.18;;;6.45;;
24635;SDS011;12772;49.794;10.024;2023-07-24T04:54:33;6.43;;;5.82;;
24635;SDS011;12772;49.794;10.024;2023-07-24T04:58:35;6.30;;;5.75;;
24635;SDS011;12772;49.794;10.024;2023-07-24T05:02:37;10.95;;;7.25;;
24635;SDS011;12772;49.794;10.024;2023-07-24T05:06:39;8.98;;;6.80;;
24635;SDS011;12772;49.794;10.024;2023-07-24T05:10:41;6.90;;;6.28;;
24635;SDS011;12772;49.794;10.024;2023-07-24T05:14:43;7.07;;;6.38;;
24635;SDS011;12772;49.794;10.024;2023-07-24T05:18:45;7.53;;;6.60;;
24635;SDS011;12772;49.794;10.024;2023-07-24T05:22:47;9.52;;;6.90;;
24635;SDS011;12772;49.794;10.024;2023-07-24T05:26:49;8.10;;;7.35;;
24635;SDS011;12772;49.794;10.024;2023-07-24T05:30:52;9.63;;;7.38;;
24635;SDS011;12772;49.794;10.024;2023-07-24T05:34:54;8.45;;;7.60;;
24635;SDS011;12772;49.794;10.024;2023-07-24T05:38:55;7.75;;;7.05;;
24635;SDS011;12772;49.794;10.024;2023-07-24T05:42:58;7.07;;;6.47;;
24635;SDS011;12772;49.794;10.024;2023-07-24T05:47:00;8.40;;;7.57;;
24635;SDS011;12772;49.794;10.024;2023-07-24T05:51:02;7.55;;;6.85;;
24635;SDS011;12772;49.794;10.024;2023-07-24T05:55:04;7.65;;;6.75;;
24635;SDS011;12772;49.794;10.024;2023-07-24T05:59:06;8.05;;;7.07;;
24635;SDS011;12772;49.794;10.024;2023-07-24T06:03:08;7.35;;;6.65;;
24635;SDS011;12772;49.794;10.024;2023-07-24T06:07:10;8.00;;;7.20;;
24635;SDS011;12772;49.794;10.024;2023-07-24T06:11:12;7.90;;;7.10;;
24635;SDS011;12772;49.794;10.024;2023-07-24T06:15:14;8.82;;;7.10;;
24635;SDS011;12772;49.794;10.024;2023-07-24T06:19:16;7.30;;;6.60;;
24635;SDS011;12772;49.794;10.024;2023-07-24T06:23:18;8.85;;;7.40;;
24635;SDS011;12772;49.794;10.024;2023-07-24T06:27:20;8.07;;;7.28;;
24635;SDS011;12772;49.794;10.024;2023-07-24T06:31:22;8.60;;;7.70;;
24635;SDS011;12772;49.794;10.024;2023-07-24T06:35:24;7.93;;;7.03;;
24635;SDS011;12772;49.794;10.024;2023-07-24T06:39:26;8.25;;;7.25;;
24635;SDS011;12772;49.794;10.024;2023-07-24T06:43:29;12.73;;;7.00;;
24635;SDS011;12772;49.794;10.024;2023-07-24T06:47:31;7.53;;;6.82;;
24635;SDS011;12772;49.794;10.024;2023-07-24T06:51:33;10.65;;;7.57;;
24635;SDS011;12772;49.794;10.024;2023-07-24T06:55:35;8.25;;;7.47;;
24635;SDS011;12772;49.794;10.024;2023-07-24T06:59:37;8.73;;;7.20;;
24635;SDS011;12772;49.794;10.024;2023-07-24T07:03:39;7.72;;;6.88;;
24635;SDS011;12772;49.794;10.024;2023-07-24T07:07:41;9.35;;;7.15;;
24635;SDS011;12772;49.794;10.024;2023-07-24T07:11:43;8.38;;;6.93;;
24635;SDS011;12772;49.794;10.024;2023-07-24T07:15:45;8.30;;;6.55;;
24635;SDS011;12772;49.794;10.024;2023-07-24T07:19:47;7.38;;;6.65;;
24635;SDS011;12772;49.794;10.024;2023-07-24T07:23:49;7.50;;;6.70;;
24635;SDS011;12772;49.794;10.024;2023-07-24T07:27:51;9.75;;;6.47;;
24635;SDS011;12772;49.794;10.024;2023-07-24T07:31:53;7.90;;;6.68;;
24635;SDS011;12772;49.794;10.024;2023-07-24T07:35:55;8.32;;;7.40;;
24635;SDS011;12772;49.794;10.024;2023-07-24T07:39:57;9.35;;;7.18;;
24635;SDS011;12772;49.794;10.024;2023-07-24T07:43:59;8.00;;;7.22;;
24635;SDS011;12772;49.794;10.024;2023-07-24T07:48:01;7.53;;;6.78;;
24635;SDS011;12772;49.794;10.024;2023-07-24T07:52:03;17.80;;;6.80;;
24635;SDS011;12772;49.794;10.024;2023-07-24T07:56:05;7.80;;;6.47;;
24635;SDS011;12772;49.794;10.024;2023-07-24T08:00:08;7.63;;;6.72;;
24635;SDS011;12772;49.794;10.024;2023-07-24T08:04:10;7.38;;;6.55;;
24635;SDS011;12772;49.794;10.024;2023-07-24T08:08:12;10.25;;;7.03;;
24635;SDS011;12772;49.794;10.024;2023-07-24T08:12:14;8.18;;;6.70;;
24635;SDS011;12772;49.794;10.024;2023-07-24T08:16:17;9.38;;;7.05;;
24635;SDS011;12772;49.794;10.024;2023-07-24T08:20:21;7.90;;;7.10;;
24635;SDS011;12772;49.794;10.024;2023-07-24T08:24:23;9.93;;;6.93;;
24635;SDS011;12772;49.794;10.024;2023-07-24T08:28:25;7.72;;;6.60;;
24635;SDS011;12772;49.794;10.024;2023-07-24T08:32:27;10.40;;;6.80;;
24635;SDS011;12772;49.794;10.024;2023-07-24T08:36:29;8.50;;;7.63;;
24635;SDS011;12772;49.794;10.024;2023-07-24T08:40:31;9.65;;;7.03;;
24635;SDS011;12772;49.794;10.024;2023-07-24T08:44:33;10.65;;;7.13;;
24635;SDS011;12772;49.794;10.024;2023-07-24T08:48:37;6.25;;;5.65;;
24635;SDS011;12772;49.794;10.024;2023-07-24T08:52:40;7.85;;;6.47;;
24635;SDS011;12772;49.794;10.024;2023-07-24T08:56:42;11.32;;;7.53;;
24635;SDS011;12772;49.794;10.024;2023-07-24T09:00:47;9.18;;;7.63;;
24635;SDS011;12772;49.794;10.024;2023-07-24T09:04:51;10.82;;;8.15;;
24635;SDS011;12772;49.794;10.024;2023-07-24T09:08:53;11.63;;;7.93;;
24635;SDS011;12772;49.794;10.024;2023-07-24T09:12:55;8.32;;;7.45;;
24635;SDS011;12772;49.794;10.024;2023-07-24T09:17:04;8.23;;;7.43;;
24635;SDS011;12772;49.794;10.024;2023-07-24T09:21:10;10.90;;;7.70;;
24635;SDS011;12772;49.794;10.024;2023-07-24T09:25:13;10.43;;;7.97;;
24635;SDS011;12772;49.794;10.024;2023-07-24T09:29:15;8.32;;;7.28;;
24635;SDS011;12772;49.794;10.024;2023-07-24T09:33:17;9.15;;;6.85;;
24635;SDS011;12772;49.794;10.024;2023-07-24T09:37:35;7.70;;;7.00;;
24635;SDS011;12772;49.794;10.024;2023-07-24T09:41:40;8.75;;;7.53;;
24635;SDS011;12772;49.794;10.024;2023-07-24T09:45:43;8.98;;;7.38;;
24635;SDS011;12772;49.794;10.024;2023-07-24T09:49:45;9.98;;;7.07;;
24635;SDS011;12772;49.794;10.024;2023-07-24T09:54:03;8.55;;;7.75;;
24635;SDS011;12772;49.794;10.024;2023-07-24T09:58:08;9.13;;;7.65;;
24635;SDS011;12772;49.794;10.024;2023-07-24T10:02:10;9.57;;;8.57;;
24635;SDS011;12772;49.794;10.024;2023-07-24T10:06:14;9.63;;;8.18;;
24635;SDS011;12772;49.794;10.024;2023-07-24T10:10:17;9.52;;;7.97;;
24635;SDS011;12772;49.794;10.024;2023-07-24T10:14:21;8.43;;;7.60;;
24635;SDS011;12772;49.794;10.024;2023-07-24T10:18:27;9.68;;;7.30;;
24635;SDS011;12772;49.794;10.024;2023-07-24T10:22:30;8.77;;;7.90;;
24635;SDS011;12772;49.794;10.024;2023-07-24T10:26:33;8.60;;;7.55;;
24635;SDS011;12772;49.794;10.024;2023-07-24T10:30:37;9.57;;;7.60;;
24635;SDS011;12772;49.794;10.024;2023-07-24T10:34:40;7.63;;;6.82;;
24635;SDS011;12772;49.794;10.024;2023-07-24T10:38:42;8.43;;;7.55;;
24635;SDS011;12772;49.794;10.024;2023-07-24T10:42:45;8.10;;;7.30;;
24635;SDS011;12772;49.794;10.024;2023-07-24T10:46:47;8.23;;;7.43;;
24635;SDS011;12772;49.794;10.024;2023-07-24T10:50:49;8.00;;;7.22;;
24635;SDS011;12772;49.794;10.024;2023-07-24T10:54:52;8.40;;;7.60;;
24635;SDS011;12772;49.794;10.024;2023-07-24T10:58:54;7.60;;;6.90;;
24635;SDS011;12772;49.794;10.024;2023-07-24T11:02:56;8.18;;;7.38;;
24635;SDS011;12772;49.794;10.024;2023-07-24T11:06:59;10.43;;;7.63;;
24635;SDS011;12772;49.794;10.024;2023-07-24T11:11:02;6.95;;;6.35;;
24635;SDS011;12772;49.794;10.024;2023-07-24T11:15:05;7.55;;;6.85;;
24635;SDS011;12772;49.794;10.024;2023-07-24T11:19:07;7.53;;;6.78;;
24635;SDS011;12772;49.794;10.024;2023-07-24T11:23:09;7.82;;;6.55;;
24635;SDS011;12772;49.794;10.024;2023-07-24T11:27:12;8.45;;;5.65;;
24635;SDS011;12772;49.794;10.024;2023-07-24T11:31:16;7.13;;;6.43;;
24635;SDS011;12772;49.794;10.024;2023-07-24T11:35:20;6.80;;;6.20;;
24635;SDS011;12772;49.794;10.024;2023-07-24T11:39:23;6.72;;;6.13;;
24635;SDS011;12772;49.794;10.024;2023-07-24T11:43:26;7.78;;;6.22;;
24635;SDS011;12772;49.794;10.024;2023-07-24T11:47:28;7.28;;;6.57;;
24635;SDS011;12772;49.794;10.024;2023-07-24T11:51:31;7.45;;;6.75;;
24635;SDS011;12772;49.794;10.024;2023-07-24T11:55:34;6.70;;;6.10;;
24635;SDS011;12772;49.794;10.024;2023-07-24T11:59:37;7.05;;;5.78;;
24635;SDS011;12772;49.794;10.024;2023-07-24T12:03:39;6.78;;;6.10;;
24635;SDS011;12772;49.794;10.024;2023-07-24T12:07:43;8.40;;;6.93;;
24635;SDS011;12772;49.794;10.024;2023-07-24T12:11:46;7.70;;;6.72;;
24635;SDS011;12772;49.794;10.024;2023-07-24T12:15:49;7.28;;;6.50;;
24635;SDS011;12772;49.794;10.024;2023-07-24T12:19:51;8.90;;;6.28;;
24635;SDS011;12772;49.794;10.024;2023-07-24T12:23:53;7.03;;;6.32;;
24635;SDS011;12772;49.794;10.024;2023-07-24T12:27:55;7.57;;;6.88;;
24635;SDS011;12772;49.794;10.024;2023-07-24T12:31:57;7.00;;;6.40;;
24635;SDS011;12772;49.794;10.024;2023-07-24T12:35:59;7.07;;;6.38;;
24635;SDS011;12772;49.794;10.024;2023-07-24T12:40:02;7.22;;;6.53;;
24635;SDS011;12772;49.794;10.024;2023-07-24T12:44:04;7.55;;;6.70;;
24635;SDS011;12772;49.794;10.024;2023-07-24T12:48:06;7.15;;;6.22;;
24635;SDS011;12772;49.794;10.024;2023-07-24T12:52:08;9.88;;;6.13;;
24635;SDS011;12772;49.794;10.024;2023-07-24T12:56:11;6.88;;;6.28;;
24635;SDS011;12772;49.794;10.024;2023-07-24T13:00:13;7.35;;;6.63;;
24635;SDS011;12772;49.794;10.024;2023-07-24T13:04:15;7.40;;;6.70;;
24635;SDS011;12772;49.794;10.024;2023-07-24T13:08:17;7.68;;;6.68;;
24635;SDS011;12772;49.794;10.024;2023-07-24T13:12:22;7.32;;;6.32;;
24635;SDS011;12772;49.794;10.024;2023-07-24T13:16:24;6.95;;;6.35;;
24635;SDS011;12772;49.794;10.024;2023-07-24T13:20:26;7.78;;;6.97;;
24635;SDS011;12772;49.794;10.024;2023-07-24T13:24:28;7.65;;;6.32;;
24635;SDS011;12772;49.794;10.024;2023-07-24T13:28:30;7.60;;;6.80;;
24635;SDS011;12772;49.794;10.024;2023-07-24T13:32:32;7.57;;;6.82;;
24635;SDS011;12772;49.794;10.024;2023-07-24T13:36:34;7.13;;;6.35;;
24635;SDS011;12772;49.794;10.024;2023-07-24T13:40:36;6.93;;;6.28;;
24635;SDS011;12772;49.794;10.024;2023-07-24T13:44:38;7.55;;;6.78;;
24635;SDS011;12772;49.794;10.024;2023-07-24T13:48:40;7.05;;;6.45;;
24635;SDS011;12772;49.794;10.024;2023-07-24T13:52:42;7.25;;;6.63;;
24635;SDS011;12772;49.794;10.024;2023-07-24T13:56:44;7.07;;;6.40;;
24635;SDS011;12772;49.794;10.024;2023-07-24T14:00:46;7.57;;;6.88;;
24635;SDS011;12772;49.794;10.024;2023-07-24T14:04:48;6.90;;;6.20;;
24635;SDS011;12772;49.794;10.024;2023-07-24T14:08:50;7.90;;;6.40;;
24635;SDS011;12772;49.794;10.024;2023-07-24T14:12:52;6.75;;;6.15;;
24635;SDS011;12772;49.794;10.024;2023-07-24T14:16:54;6.93;;;6.32;;
24635;SDS011;12772;49.794;10.024;2023-07-24T14:20:56;7.00;;;6.40;;
24635;SDS011;12772;49.794;10.024;2023-07-24T14:25:00;7.57;;;6.57;;
24635;SDS011;12772;49.794;10.024;2023-07-24T14:29:02;7.90;;;7.20;;
24635;SDS011;12772;49.794;10.024;2023-07-24T14:33:05;6.97;;;6.38;;
24635;SDS011;12772;49.794;10.024;2023-07-24T14:37:07;7.38;;;6.63;;
24635;SDS011;12772;49.794;10.024;2023-07-24T14:41:09;7.68;;;6.88;;
24635;SDS011;12772;49.794;10.024;2023-07-24T14:45:13;7.32;;;6.65;;
24635;SDS011;12772;49.794;10.024;2023-07-24T14:49:15;6.85;;;6.25;;
24635;SDS011;12772;49.794;10.024;2023-07-24T14:53:17;7.00;;;6.20;;
24635;SDS011;12772;49.794;10.024;2023-07-24T14:57:19;7.00;;;6.30;;
24635;SDS011;12772;49.794;10.024;2023-07-24T15:01:21;8.20;;;6.78;;
24635;SDS011;12772;49.794;10.024;2023-07-24T15:05:23;6.85;;;6.25;;
24635;SDS011;12772;49.794;10.024;2023-07-24T15:09:25;7.50;;;6.32;;
24635;SDS011;12772;49.794;10.024;2023-07-24T15:13:27;10.98;;;5.78;;
24635;SDS011;12772;49.794;10.024;2023-07-24T15:17:29;7.03;;;6.32;;
24635;SDS011;12772;49.794;10.024;2023-07-24T15:21:31;6.65;;;6.05;;
24635;SDS011;12772;49.794;10.024;2023-07-24T15:25:33;7.25;;;6.65;;
24635;SDS011;12772;49.794;10.024;2023-07-24T15:29:36;6.82;;;6.28;;
24635;SDS011;12772;49.794;10.024;2023-07-24T15:33:38;6.82;;;6.22;;
24635;SDS011;12772;49.794;10.024;2023-07-24T15:37:40;6.88;;;6.18;;
24635;SDS011;12772;49.794;10.024;2023-07-24T15:41:42;7.03;;;6.43;;
24635;SDS011;12772;49.794;10.024;2023-07-24T15:45:44;7.53;;;6.82;;
24635;SDS011;12772;49.794;10.024;2023-07-24T15:49:46;18.80;;;16.90;;
24635;SDS011;12772;49.794;10.024;2023-07-24T15:53:48;16.15;;;14.45;;
24635;SDS011;12772;49.794;10.024;2023-07-24T15:57:50;14.57;;;12.82;;
24635;SDS011;12772;49.794;10.024;2023-07-24T16:01:52;7.65;;;7.00;;
24635;SDS011;12772;49.794;10.024;2023-07-24T16:05:54;8.68;;;6.90;;
24635;SDS011;12772;49.794;10.024;2023-07-24T16:09:56;6.95;;;6.32;;
24635;SDS011;12772;49.794;10.024;2023-07-24T16:13:58;6.97;;;6.28;;
24635;SDS011;12772;49.794;10.024;2023-07-24T16:18:00;6.70;;;6.00;;
24635;SDS011;12772;49.794;10.024;2023-07-24T16:22:02;7.10;;;6.40;;
24635;SDS011;12772;49.794;10.024;2023-07-24T16:26:05;6.85;;;6.15;;
24635;SDS011;12772;49.794;10.024;2023-07-24T16:30:07;7.95;;;5.97;;
24635;SDS011;12772;49.794;10.024;2023-07-24T16:34:10;7.05;;;6.35;;
24635;SDS011;12772;49.794;10.024;2023-07-24T16:38:12;6.18;;;5.60;;
24635;SDS011;12772;49.794;10.024;2023-07-24T16:42:15;6.85;;;6.15;;
24635;SDS011;12772;49.794;10.024;2023-07-24T16:46:18;6.30;;;5.72;;
24635;SDS011;12772;49.794;10.024;2023-07-24T16:50:20;6.88;;;6.18;;
24635;SDS011;12772;49.794;10.024;2023-07-24T16:54:22;7.18;;;6.47;;
24635;SDS011;12772;49.794;10.024;2023-07-24T16:58:24;6.97;;;6.28;;
24635;SDS011;12772;49.794;10.024;2023-07-24T17:02:26;7.20;;;6.50;;
24635;SDS011;12772;49.794;10.024;2023-07-24T17:06:28;6.38;;;5.78;;
24635;SDS011;12772;49.794;10.024;2023-07-24T17:10:40;6.40;;;5.80;;
24635;SDS011;12772;49.794;10.024;2023-07-24T17:14:47;5.97;;;5.47;;
24635;SDS011;12772;49.794;10.024;2023-07-24T17:18:49;5.80;;;5.30;;
24635;SDS011;12772;49.794;10.024;2023-07-24T17:22:54;5.32;;;4.82;;
24635;SDS011;12772;49.794;10.024;2023-07-24T17:26:56;4.13;;;3.83;;
24635;SDS011;12772;49.794;10.024;2023-07-24T17:30:58;3.63;;;3.33;;
24635;SDS011;12772;49.794;10.024;2023-07-24T17:35:00;2.80;;;2.60;;
24635;SDS011;12772;49.794;10.024;2023-07-24T17:39:02;3.00;;;2.80;;
24635;SDS011;12772;49.794;10.024;2023-07-24T17:43:04;3.05;;;2.83;;
24635;SDS011;12772;49.794;10.024;2023-07-24T17:47:06;2.50;;;2.38;;
24635;SDS011;12772;49.794;10.024;2023-07-24T17:51:08;3.35;;;3.10;;
24635;SDS011;12772;49.794;10.024;2023-07-24T17:55:10;3.40;;;2.72;;
24635;SDS011;12772;49.794;10.024;2023-07-24T17:59:12;3.22;;;3.03;;
24635;SDS011;12772;49.794;10.024;2023-07-24T18:03:14;3.38;;;3.10;;
24635;SDS011;12772;49.794;10.024;2023-07-24T18:07:17;3.28;;;3.08;;
24635;SDS011;12772;49.794;10.024;2023-07-24T18:11:20;3.35;;;3.15;;
24635;SDS011;12772;49.794;10.024;2023-07-24T18:15:22;3.30;;;3.00;;
24635;SDS011;12772;49.794;10.024;2023-07-24T18:19:25;2.67;;;2.47;;
24635;SDS011;12772;49.794;10.024;2023-07-24T18:23:26;3.08;;;2.80;;
24635;SDS011;12772;49.794;10.024;2023-07-24T18:27:28;3.40;;;3.10;;
24635;SDS011;12772;49.794;10.024;2023-07-24T18:31:31;3.45;;;3.15;;
24635;SDS011;12772;49.794;10.024;2023-07-24T18:35:33;3.65;;;3.35;;
24635;SDS011;12772;49.794;10.024;2023-07-24T18:39:35;4.20;;;3.83;;
24635;SDS011;12772;49.794;10.024;2023-07-24T18:43:37;3.85;;;3.17;;
24635;SDS011;12772;49.794;10.024;2023-07-24T18:47:39;3.35;;;3.13;;
24635;SDS011;12772;49.794;10.024;2023-07-24T18:51:41;2.97;;;2.78;;
24635;SDS011;12772;49.794;10.024;2023-07-24T18:55:43;2.97;;;2.65;;
24635;SDS011;12772;49.794;10.024;2023-07-24T18:59:46;3.15;;;2.95;;
24635;SDS011;12772;49.794;10.024;2023-07-24T19:03:48;3.00;;;2.70;;
24635;SDS011;12772;49.794;10.024;2023-07-24T19:07:50;2.97;;;2.78;;
24635;SDS011;12772;49.794;10.024;2023-07-24T19:11:52;3.17;;;2.88;;
24635;SDS011;12772;49.794;10.024;2023-07-24T19:15:54;3.40;;;3.03;;
24635;SDS011;12772;49.794;10.024;2023-07-24T19:19:56;2.83;;;2.55;;
24635;SDS011;12772;49.794;10.024;2023-07-24T19:23:58;3.33;;;3.00;;
24635;SDS011;12772;49.794;10.024;2023-07-24T19:28:00;3.00;;;2.80;;
24635;SDS011;12772;49.794;10.024;2023-07-24T19:32:02;4.00;;;3.00;;
24635;SDS011;12772;49.794;10.024;2023-07-24T19:36:04;3.65;;;2.67;;
24635;SDS011;12772;49.794;10.024;2023-07-24T19:40:07;2.80;;;2.60;;
24635;SDS011;12772;49.794;10.024;2023-07-24T19:44:09;3.40;;;2.63;;
24635;SDS011;12772;49.794;10.024;2023-07-24T19:48:11;3.17;;;2.78;;
24635;SDS011;12772;49.794;10.024;2023-07-24T19:52:14;2.83;;;2.60;;
24635;SDS011;12772;49.794;10.024;2023-07-24T19:56:16;2.50;;;2.30;;
24635;SDS011;12772;49.794;10.024;2023-07-24T20:00:18;2.10;;;2.00;;
24635;SDS011;12772;49.794;10.024;2023-07-24T20:04:21;2.50;;;2.30;;
24635;SDS011;12772;49.794;10.024;2023-07-24T20:08:23;2.30;;;2.10;;
24635;SDS011;12772;49.794;10.024;2023-07-24T20:12:26;2.05;;;1.90;;
24635;SDS011;12772;49.794;10.024;2023-07-24T20:16:28;3.00;;;2.13;;
24635;SDS011;12772;49.794;10.024;2023-07-24T20:20:30;2.85;;;1.85;;
24635;SDS011;12772;49.794;10.024;2023-07-24T20:24:32;2.10;;;2.00;;
24635;SDS011;12772;49.794;10.024;2023-07-24T20:28:34;4.07;;;2.05;;
24635;SDS011;12772;49.794;10.024;2023-07-24T20:32:36;3.38;;;2.03;;
24635;SDS011;12772;49.794;10.024;2023-07-24T20:36:38;1.83;;;1.70;;
24635;SDS011;12772;49.794;10.024;2023-07-24T20:40:40;2.63;;;1.70;;
24635;SDS011;12772;49.794;10.024;2023-07-24T20:44:43;1.92;;;1.83;;
24635;SDS011;12772;49.794;10.024;2023-07-24T20:48:45;2.90;;;2.08;;
24635;SDS011;12772;49.794;10.024;2023-07-24T20:52:47;3.13;;;2.00;;
24635;SDS011;12772;49.794;10.024;2023-07-24T20:56:49;2.00;;;1.90;;
24635;SDS011;12772;49.794;10.024;2023-07-24T21:00:51;2.38;;;2.03;;
24635;SDS011;12772;49.794;10.024;2023-07-24T21:04:53;2.90;;;1.92;;
24635;SDS011;12772;49.794;10.024;2023-07-24T21:08:55;2.15;;;1.80;;
24635;SDS011;12772;49.794;10.024;2023-07-24T21:12:57;2.35;;;1.60;;
24635;SDS011;12772;49.794;10.024;2023-07-24T21:17:00;1.50;;;1.40;;
24635;SDS011;12772;49.794;10.024;2023-07-24T21:21:02;2.72;;;1.92;;
24635;SDS011;12772;49.794;10.024;2023-07-24T21:25:04;1.67;;;1.58;;
24635;SDS011;12772;49.794;10.024;2023-07-24T21:29:06;1.80;;;1.70;;
24635;SDS011;12772;49.794;10.024;2023-07-24T21:33:08;1.95;;;1.85;;
24635;SDS011;12772;49.794;10.024;2023-07-24T21:37:10;2.15;;;1.98;;
24635;SDS011;12772;49.794;10.024;2023-07-24T21:41:12;2.10;;;1.98;;
24635;SDS011;12772;49.794;10.024;2023-07-24T21:45:14;2.20;;;1.90;;
24635;SDS011;12772;49.794;10.024;2023-07-24T21:49:17;2.00;;;1.90;;
24635;SDS011;12772;49.794;10.024;2023-07-24T21:53:19;1.85;;;1.75;;
24635;SDS011;12772;49.794;10.024;2023-07-24T21:57:21;1.83;;;1.73;;
24635;SDS011;12772;49.794;10.024;2023-07-24T22:01:23;1.92;;;1.80;;
24635;SDS011;12772;49.794;10.024;2023-07-24T22:05:25;2.10;;;1.90;;
24635;SDS011;12772;49.794;10.024;2023-07-24T22:09:27;3.92;;;1.80;;
24635;SDS011;12772;49.794;10.024;2023-07-24T22:13:29;2.30;;;2.03;;
24635;SDS011;12772;49.794;10.024;2023-07-24T22:17:31;1.60;;;1.50;;
24635;SDS011;12772;49.794;10.024;2023-07-24T22:21:34;1.48;;;1.38;;
24635;SDS011;12772;49.794;10.024;2023-07-24T22:25:36;2.20;;;2.00;;
24635;SDS011;12772;49.794;10.024;2023-07-24T22:29:39;2.05;;;1.95;;
24635;SDS011;12772;49.794;10.024;2023-07-24T22:33:42;1.67;;;1.58;;
24635;SDS011;12772;49.794;10.024;2023-07-24T22:37:43;2.33;;;1.60;;
24635;SDS011;12772;49.794;10.024;2023-07-24T22:41:46;1.70;;;1.60;;
24635;SDS011;12772;49.794;10.024;2023-07-24T22:45:48;1.92;;;1.83;;
24635;SDS011;12772;49.794;10.024;2023-07-24T22:49:50;2.00;;;1.90;;
24635;SDS011;12772;49.794;10.024;2023-07-24T22:53:53;1.98;;;1.77;;
24635;SDS011;12772;49.794;10.024;2023-07-24T22:57:55;2.00;;;1.80;;
24635;SDS011;12772;49.794;10.024;2023-07-24T23:01:57;4.40;;;1.80;;
24635;SDS011;12772;49.794;10.024;2023-07-24T23:05:59;2.10;;;2.00;;
24635;SDS011;12772;49.794;10.024;2023-07-24T23:14:40;2.63;;;1.90;;
24635;SDS011;12772;49.794;10.024;2023-07-24T23:18:42;2.13;;;2.03;;
24635;SDS011;12772;49.794;10.024;2023-07-24T23:22:44;1.88;;;1.77;;
24635;SDS011;12772;49.794;10.024;2023-07-24T23:26:46;2.17;;;1.73;;
24635;SDS011;12772;49.794;10.024;2023-07-24T23:30:48;2.70;;;1.88;;
24635;SDS011;12772;49.794;10.024;2023-07-24T23:34:50;1.88;;;1.77;;
24635;SDS011;12772;49.794;10.024;2023-07-24T23:38:52;2.10;;;1.90;;
24635;SDS011;12772;49.794;10.024;2023-07-24T23:42:54;3.90;;;2.30;;
24635;SDS011;12772;49.794;10.024;2023-07-24T23:46:56;3.50;;;2.10;;
24635;SDS011;12772;49.794;10.024;2023-07-24T23:50:58;2.15;;;2.05;;
24635;SDS011;12772;49.794;10.024;2023-07-24T23:55:00;1.90;;;1.75;;
24635;SDS011;12772;49.794;10.024;2023-07-24T23:59:02;1.48;;;1.38;;
